createdAt,value
2018-03-31T00:01:12.759Z,99.90
2018-03-31T00:03:43.899Z,99.90
2018-03-31T00:06:16.602Z,99.90
2018-03-31T00:08:49.289Z,99.90
2018-03-31T00:11:21.699Z,99.90
2018-03-31T00:13:55.962Z,99.90
2018-03-31T00:16:25.824Z,99.90
2018-03-31T00:19:01.125Z,99.90
2018-03-31T00:21:34.506Z,99.90
2018-03-31T00:24:08.202Z,99.90
2018-03-31T00:26:40.652Z,99.90
2018-03-31T00:29:34.780Z,99.90
2018-03-31T01:03:19.751Z,99.90
2018-03-31T01:05:47.969Z,99.90
2018-03-31T01:08:15.898Z,99.90
2018-03-31T01:10:45.058Z,99.90
2018-03-31T01:13:16.333Z,99.90
2018-03-31T01:15:46.129Z,99.90
2018-03-31T01:18:15.221Z,99.90
2018-03-31T01:20:47.110Z,99.90
2018-03-31T01:23:15.078Z,99.90
2018-03-31T01:25:46.992Z,99.90
2018-03-31T01:28:16.442Z,99.90
2018-03-31T01:30:46.432Z,99.90
2018-03-31T01:33:15.099Z,99.90
2018-03-31T01:35:43.169Z,99.90
2018-03-31T01:38:13.574Z,99.90
2018-03-31T01:40:45.641Z,99.90
2018-03-31T01:43:14.724Z,99.90
2018-03-31T01:45:47.994Z,99.90
2018-03-31T01:48:23.774Z,99.90
2018-03-31T01:59:08.964Z,99.90
2018-03-31T02:01:39.138Z,99.90
2018-03-31T02:06:46.110Z,99.90
2018-03-31T02:09:18.660Z,99.90
2018-03-31T02:11:52.072Z,99.90
2018-03-31T02:14:23.291Z,99.90
2018-03-31T02:16:51.545Z,99.90
2018-03-31T02:19:21.366Z,99.90
2018-03-31T02:21:51.081Z,99.90
2018-03-31T02:24:19.214Z,99.90
2018-03-31T02:26:47.581Z,99.90
2018-03-31T02:29:15.861Z,99.90
2018-03-31T02:31:43.750Z,99.90
2018-03-31T02:34:14.054Z,99.90
2018-03-31T02:36:44.270Z,99.90
2018-03-31T02:39:22.060Z,99.90
2018-03-31T02:50:48.203Z,99.90
2018-03-31T02:53:26.039Z,99.90
2018-03-31T02:55:55.773Z,99.90
2018-03-31T02:58:24.094Z,99.90
2018-03-31T03:00:52.229Z,99.90
2018-03-31T03:03:20.095Z,99.90
2018-03-31T03:05:48.578Z,99.90
2018-03-31T03:08:16.575Z,99.90
2018-03-31T03:10:45.198Z,99.90
2018-03-31T03:13:14.073Z,99.90
2018-03-31T03:15:43.587Z,99.90
2018-03-31T03:18:11.758Z,99.90
2018-03-31T03:20:39.810Z,99.90
2018-03-31T03:23:07.917Z,99.90
2018-03-31T03:25:36.250Z,99.90
2018-03-31T03:28:05.106Z,99.90
2018-03-31T03:30:33.183Z,99.90
2018-03-31T03:33:01.771Z,99.90
2018-03-31T03:35:29.783Z,99.90
2018-03-31T03:37:57.701Z,99.90
2018-03-31T03:40:25.510Z,99.90
2018-03-31T03:42:54.089Z,99.90
2018-03-31T03:45:22.125Z,99.90
2018-03-31T03:47:50.005Z,99.90
2018-03-31T03:50:17.818Z,99.90
2018-03-31T03:52:45.662Z,99.90
2018-03-31T03:55:13.480Z,99.90
2018-03-31T03:57:42.890Z,99.90
2018-03-31T04:00:11.383Z,99.90
2018-03-31T04:02:40.893Z,99.90
2018-03-31T04:05:11.311Z,99.90
2018-03-31T04:07:40.467Z,99.90
2018-03-31T04:10:08.562Z,99.90
2018-03-31T04:12:37.273Z,99.90
2018-03-31T04:15:08.559Z,99.90
2018-03-31T04:17:39.409Z,99.90
2018-03-31T04:20:09.629Z,99.90
2018-03-31T04:22:39.038Z,99.90
2018-03-31T04:25:07.667Z,99.90
2018-03-31T04:27:36.196Z,99.90
2018-03-31T04:30:07.228Z,99.90
2018-03-31T04:32:35.967Z,99.90
2018-03-31T04:35:04.933Z,99.90
2018-03-31T04:37:33.500Z,99.90
2018-03-31T04:40:02.120Z,99.90
2018-03-31T04:42:30.319Z,99.90
2018-03-31T04:44:58.278Z,99.90
2018-03-31T04:47:26.183Z,99.90
2018-03-31T04:49:53.970Z,99.90
2018-03-31T04:52:22.711Z,99.90
2018-03-31T04:54:51.479Z,99.90
2018-03-31T04:57:21.131Z,99.90
2018-03-31T04:59:52.735Z,99.90
2018-03-31T05:05:01.764Z,99.90
2018-03-31T05:07:33.015Z,99.90
2018-03-31T05:10:00.940Z,99.90
2018-03-31T05:12:30.772Z,99.90
2018-03-31T05:14:59.748Z,99.90
2018-03-31T05:17:28.689Z,99.90
2018-03-31T05:19:59.218Z,99.90
2018-03-31T05:22:30.278Z,99.90
2018-03-31T05:25:02.644Z,99.90
2018-03-31T05:27:32.888Z,99.90
2018-03-31T05:30:00.779Z,99.90
2018-03-31T05:32:29.451Z,99.90
2018-03-31T05:34:58.190Z,99.90
2018-03-31T05:37:27.119Z,99.90
2018-03-31T05:39:56.152Z,99.90
2018-03-31T05:42:26.583Z,99.90
2018-03-31T05:44:59.174Z,99.90
2018-03-31T05:47:27.883Z,99.90
2018-03-31T05:49:57.201Z,99.90
2018-03-31T05:52:26.477Z,99.90
2018-03-31T05:54:57.013Z,99.90
2018-03-31T05:57:29.557Z,99.90
2018-03-31T06:00:00.282Z,99.90
2018-03-31T06:02:28.361Z,99.90
2018-03-31T06:04:56.336Z,99.90
2018-03-31T06:31:24.287Z,99.90
2018-03-31T06:34:04.539Z,99.90
2018-03-31T07:07:50.926Z,99.90
2018-03-31T07:10:18.712Z,99.90
2018-03-31T07:12:46.405Z,99.90
2018-03-31T07:15:14.181Z,99.90
2018-03-31T07:17:42.003Z,96.50
2018-03-31T07:20:09.836Z,96.60
2018-03-31T07:22:37.643Z,92.80
2018-03-31T07:25:05.503Z,92.60
2018-03-31T07:27:33.742Z,91.00
2018-03-31T07:30:02.016Z,92.70
2018-03-31T07:32:30.909Z,90.60
2018-03-31T07:34:59.767Z,88.80
2018-03-31T07:37:29.917Z,88.80
2018-03-31T07:39:57.632Z,90.50
2018-03-31T07:42:25.322Z,83.70
2018-03-31T07:47:27.383Z,83.20
2018-03-31T07:49:54.942Z,90.80
2018-03-31T07:53:00.241Z,90.30
2018-03-31T08:01:28.352Z,93.00
2018-03-31T08:06:38.169Z,96.50
2018-03-31T08:16:08.908Z,94.00
2018-03-31T08:18:37.952Z,91.70
2018-03-31T08:21:06.996Z,91.60
2018-03-31T08:23:35.591Z,91.00
2018-03-31T08:26:03.413Z,90.90
2018-03-31T08:28:31.238Z,88.80
2018-03-31T08:30:59.033Z,91.40
2018-03-31T08:33:26.412Z,90.70
2018-03-31T08:35:54.681Z,90.30
2018-03-31T08:38:22.513Z,91.50
2018-03-31T08:40:50.383Z,92.10
2018-03-31T08:43:18.129Z,92.90
2018-03-31T08:45:45.420Z,93.50
2018-03-31T08:48:40.753Z,93.40
2018-03-31T08:51:08.290Z,94.20
2018-03-31T08:53:35.915Z,94.10
2018-03-31T08:56:03.573Z,94.80
2018-03-31T08:58:32.448Z,91.30
2018-03-31T09:52:38.072Z,90.40
2018-03-31T09:55:06.487Z,92.10
2018-03-31T09:57:34.173Z,92.10
2018-03-31T10:00:01.941Z,91.70
2018-03-31T10:02:30.571Z,93.10
2018-03-31T10:04:59.069Z,93.20
2018-03-31T10:07:28.296Z,94.60
2018-03-31T10:12:30.373Z,95.00
2018-03-31T10:14:58.801Z,93.50
2018-03-31T10:17:26.843Z,92.90
2018-03-31T10:26:29.369Z,91.60
2018-03-31T10:28:58.909Z,91.20
2018-03-31T10:31:27.639Z,90.60
2018-03-31T10:33:56.166Z,91.90
2018-03-31T10:39:15.071Z,90.70
2018-03-31T10:41:43.279Z,90.50
2018-03-31T10:44:14.977Z,92.10
2018-03-31T10:46:43.427Z,90.50
2018-03-31T10:49:11.102Z,90.50
2018-03-31T11:13:36.061Z,95.30
2018-03-31T11:16:04.034Z,95.10
2018-03-31T11:18:31.858Z,95.40
2018-03-31T11:20:59.761Z,95.80
2018-03-31T11:23:27.505Z,96.20
2018-03-31T11:25:56.342Z,96.10
2018-03-31T11:28:24.211Z,95.90
2018-03-31T11:30:52.344Z,96.60
2018-03-31T11:33:20.037Z,96.30
2018-03-31T11:35:50.303Z,96.40
2018-03-31T11:38:27.277Z,94.90
2018-03-31T11:40:55.503Z,95.80
2018-03-31T11:45:58.934Z,95.50
2018-03-31T11:51:10.665Z,97.80
2018-03-31T11:54:19.508Z,96.10
2018-03-31T11:56:47.518Z,92.90
2018-03-31T11:59:16.058Z,93.10
2018-03-31T12:04:42.225Z,92.50
2018-03-31T12:15:05.501Z,94.90
2018-03-31T12:17:34.317Z,95.30
2018-03-31T12:20:05.461Z,95.10
2018-03-31T12:22:33.921Z,94.70
2018-03-31T12:27:36.484Z,95.40
2018-03-31T12:30:06.931Z,96.20
2018-03-31T12:32:37.193Z,96.00
2018-03-31T12:35:07.573Z,95.50
2018-03-31T12:37:44.150Z,95.70
2018-03-31T12:40:12.406Z,95.70
2018-03-31T12:42:41.119Z,96.30
2018-03-31T12:45:12.949Z,97.10
2018-03-31T12:47:41.125Z,98.60
2018-03-31T12:52:41.718Z,95.90
2018-03-31T12:55:09.445Z,96.20
